FR-0032 weather

Centre d'Etude du C.E.A. Heliport
Valduc, Burgundy, France

Public forecast

Using degrees Celsius for public forecast. Weather courtesy of forecast.io.

METAR (pilot weather report)

Closest report is Dijon-Bourgogne Airport, 20.4 nm (37.8 km) SSE. Retrieved 2019/07/19 00:30 UTC (15 minutes ago):

LFSD 190030Z AUTO VRB03KT CAVOK 21/11 Q1016

TAF (pilot weather forecast)

Forecast is more than 12 hours old.

Closest forecast is Dijon-Bourgogne Airport, 20.4 nm (37.8 km) SSE. Retrieved 2015/06/01 00:11 UTC (4 years ago):

TAF LFSD 010600Z 0100/0124 CNL